createdAt,value
2023-04-16T00:00:08.257Z,101810.25
2023-04-16T00:02:36.251Z,101815.47
2023-04-16T00:05:04.460Z,101808.94
2023-04-16T00:07:32.423Z,101804.53
2023-04-16T00:10:00.352Z,101817.44
2023-04-16T00:12:29.588Z,101804.75
2023-04-16T00:14:57.488Z,101814.19
2023-04-16T00:17:25.708Z,101808.69
2023-04-16T00:19:53.755Z,101812.41
2023-04-16T00:22:21.694Z,101817.56
2023-04-16T00:24:49.755Z,101815.00
2023-04-16T00:27:17.694Z,101812.09
2023-04-16T00:29:47.065Z,101807.88
2023-04-16T00:32:15.138Z,101814.91
2023-04-16T00:34:43.003Z,101808.94
2023-04-16T00:37:10.964Z,101802.34
2023-04-16T00:39:39.155Z,101803.75
2023-04-16T00:42:07.114Z,101802.56
2023-04-16T00:44:36.137Z,101810.47
2023-04-16T00:47:07.702Z,101814.25
2023-04-16T00:49:37.148Z,101816.03
2023-04-16T00:52:05.558Z,101807.31
2023-04-16T00:54:33.601Z,101804.94
2023-04-16T00:57:01.637Z,101810.56
2023-04-16T00:59:30.557Z,101801.75
2023-04-16T01:01:58.835Z,101807.09
2023-04-16T01:04:29.882Z,101800.31
2023-04-16T01:06:57.935Z,101802.06
2023-04-16T01:09:25.875Z,101807.22
2023-04-16T01:11:53.737Z,101810.03
2023-04-16T01:14:21.686Z,101809.66
2023-04-16T01:16:49.662Z,101809.56
2023-04-16T01:19:17.641Z,101810.13
2023-04-16T01:21:47.317Z,101815.72
2023-04-16T01:24:15.226Z,101819.09
2023-04-16T01:26:43.120Z,101822.03
2023-04-16T01:29:11.490Z,101826.28
2023-04-16T01:31:39.651Z,101818.22
2023-04-16T01:34:07.552Z,101827.19
2023-04-16T01:36:35.548Z,101824.59
2023-04-16T01:39:05.505Z,101829.00
2023-04-16T01:41:33.410Z,101834.94
2023-04-16T01:44:01.420Z,101834.00
2023-04-16T01:46:30.807Z,101845.31
2023-04-16T01:48:59.096Z,101843.94
2023-04-16T01:51:27.320Z,101842.53
2023-04-16T01:53:56.034Z,101845.78
2023-04-16T01:56:25.544Z,101842.31
2023-04-16T01:58:53.851Z,101845.78
2023-04-16T02:01:21.994Z,101850.88
2023-04-16T02:03:50.237Z,101849.44
2023-04-16T02:06:18.283Z,101852.66
2023-04-16T02:08:46.225Z,101854.34
2023-04-16T02:11:14.112Z,101856.31
2023-04-16T02:13:43.340Z,101856.94
2023-04-16T02:16:11.605Z,101855.81
2023-04-16T02:18:39.657Z,101861.88
2023-04-16T02:21:07.897Z,101860.19
2023-04-16T02:23:35.956Z,101859.69
2023-04-16T02:26:04.435Z,101866.06
2023-04-16T02:28:32.298Z,101866.47
2023-04-16T02:31:01.717Z,101862.66
2023-04-16T02:33:29.708Z,101855.00
2023-04-16T02:35:57.811Z,101857.47
2023-04-16T02:38:25.771Z,101865.47
2023-04-16T02:40:53.701Z,101867.28
2023-04-16T02:43:21.912Z,101859.13
2023-04-16T02:45:49.983Z,101860.47
2023-04-16T02:48:19.459Z,101865.47
2023-04-16T02:50:47.406Z,101865.34
2023-04-16T02:53:15.537Z,101868.91
2023-04-16T02:55:45.402Z,101871.88
2023-04-16T02:58:13.364Z,101865.31
2023-04-16T03:00:41.410Z,101875.72
2023-04-16T03:03:09.312Z,101869.19
2023-04-16T03:05:40.316Z,101876.38
2023-04-16T03:08:08.722Z,101874.19
2023-04-16T03:10:36.612Z,101872.44
2023-04-16T03:13:05.195Z,101876.66
2023-04-16T03:15:33.224Z,101880.25
2023-04-16T03:18:01.700Z,101877.53
2023-04-16T03:20:29.659Z,101878.84
2023-04-16T03:22:59.043Z,101886.63
2023-04-16T03:25:27.053Z,101879.38
2023-04-16T03:27:54.876Z,101885.34
2023-04-16T03:30:22.997Z,101881.06
2023-04-16T03:32:51.975Z,101889.53
2023-04-16T03:35:20.064Z,101886.91
2023-04-16T03:37:48.066Z,101883.78
2023-04-16T03:40:17.431Z,101883.38
2023-04-16T03:42:45.443Z,101894.69
2023-04-16T03:45:13.627Z,101886.22
2023-04-16T03:47:41.560Z,101888.25
2023-04-16T03:50:11.698Z,101890.75
2023-04-16T03:52:39.636Z,101897.97
2023-04-16T03:55:08.685Z,101892.59
2023-04-16T03:57:38.114Z,101891.28
2023-04-16T04:00:07.226Z,101882.75
2023-04-16T04:02:35.251Z,101896.78
2023-04-16T04:05:03.559Z,101887.97
2023-04-16T04:07:31.571Z,101887.81
2023-04-16T04:09:59.693Z,101892.13
2023-04-16T04:12:27.751Z,101891.72
2023-04-16T04:14:56.999Z,101888.97
2023-04-16T04:17:24.915Z,101890.16
2023-04-16T04:20:00.997Z,101894.41
2023-04-16T04:22:29.719Z,101900.41
2023-04-16T04:24:57.782Z,101900.66
2023-04-16T04:27:25.682Z,101902.53
2023-04-16T04:29:53.553Z,101912.22
2023-04-16T04:32:22.974Z,101912.66
2023-04-16T04:34:51.137Z,101917.00
2023-04-16T04:37:19.034Z,101914.16
2023-04-16T04:39:47.007Z,101911.94
2023-04-16T04:42:14.954Z,101915.19
2023-04-16T04:44:42.901Z,101912.53
2023-04-16T04:47:10.930Z,101906.88
2023-04-16T04:49:40.838Z,101914.59
2023-04-16T04:52:09.745Z,101915.47
2023-04-16T04:54:41.649Z,101913.38
2023-04-16T04:57:09.833Z,101918.50
2023-04-16T04:59:37.840Z,101918.88
2023-04-16T05:02:05.815Z,101921.66
2023-04-16T05:04:33.881Z,101914.97
2023-04-16T05:07:03.575Z,101916.56
2023-04-16T05:09:31.850Z,101910.84
2023-04-16T05:11:59.981Z,101920.44
2023-04-16T05:14:27.899Z,101923.34
2023-04-16T05:16:56.565Z,101923.97
2023-04-16T05:19:24.554Z,101928.03
2023-04-16T05:21:52.475Z,101929.25
2023-04-16T05:24:22.148Z,101937.13
2023-04-16T05:26:50.278Z,101939.81
2023-04-16T05:29:18.200Z,101942.16
2023-04-16T05:31:46.327Z,101939.28
2023-04-16T05:34:14.246Z,101940.09
2023-04-16T05:36:42.363Z,101944.84
2023-04-16T05:39:10.988Z,101952.00
2023-04-16T05:41:40.421Z,101951.34
2023-04-16T05:44:08.444Z,101961.25
2023-04-16T05:46:36.398Z,101959.59
2023-04-16T05:49:04.343Z,101966.00
2023-04-16T05:51:32.513Z,101963.50
2023-04-16T05:54:00.385Z,101966.28
2023-04-16T05:56:28.254Z,101971.00
2023-04-16T05:58:57.681Z,101970.63
2023-04-16T06:01:26.865Z,101974.91
2023-04-16T06:03:54.883Z,101974.66
2023-04-16T06:06:23.007Z,101976.13
2023-04-16T06:08:50.918Z,101975.69
2023-04-16T06:11:19.170Z,101977.41
2023-04-16T06:13:47.244Z,101972.50
2023-04-16T06:16:16.587Z,101982.13
2023-04-16T06:18:44.529Z,101984.44
2023-04-16T06:21:12.538Z,101982.25
2023-04-16T06:23:40.594Z,101989.91
2023-04-16T06:26:08.525Z,101989.47
2023-04-16T06:28:36.483Z,101993.38
2023-04-16T06:31:04.555Z,101990.34
2023-04-16T06:33:34.172Z,101991.94
2023-04-16T06:36:02.189Z,101998.06
2023-04-16T06:38:30.065Z,101994.25
2023-04-16T06:40:58.448Z,102004.16
2023-04-16T06:43:26.540Z,102008.25
2023-04-16T06:45:54.425Z,102008.19
2023-04-16T06:48:22.277Z,102004.75
2023-04-16T06:50:52.085Z,102014.75
2023-04-16T06:53:19.988Z,102003.97
2023-04-16T06:55:47.876Z,102004.84
2023-04-16T06:58:16.944Z,102012.44
2023-04-16T07:00:44.894Z,102021.88
2023-04-16T07:03:12.912Z,102015.47
2023-04-16T07:05:41.094Z,102022.41
2023-04-16T07:08:10.608Z,102013.75
2023-04-16T07:10:41.789Z,102018.09
2023-04-16T07:13:09.996Z,102020.31
2023-04-16T07:15:39.001Z,102027.09
2023-04-16T07:18:07.118Z,102026.66
2023-04-16T07:20:36.288Z,102023.53
2023-04-16T07:23:04.189Z,102031.63
2023-04-16T07:25:33.561Z,102027.66
2023-04-16T07:28:01.465Z,102028.72
2023-04-16T07:30:34.227Z,102024.28
2023-04-16T07:33:02.617Z,102037.09
2023-04-16T07:35:31.273Z,102044.75
2023-04-16T07:37:59.222Z,102044.75
2023-04-16T07:40:27.399Z,102044.88
2023-04-16T07:42:56.997Z,102043.00
2023-04-16T07:45:25.371Z,102047.69
2023-04-16T07:47:53.262Z,102038.78
2023-04-16T07:50:21.427Z,102042.72
2023-04-16T07:52:49.490Z,102054.13
2023-04-16T07:55:17.366Z,102045.22
2023-04-16T07:57:45.297Z,102048.06
2023-04-16T08:00:15.461Z,102054.41
2023-04-16T08:02:44.963Z,102062.34
2023-04-16T08:05:13.818Z,102058.28
2023-04-16T08:07:41.750Z,102055.81
2023-04-16T08:10:10.463Z,102053.28
2023-04-16T08:12:39.245Z,102051.09
2023-04-16T08:15:08.654Z,102054.97
2023-04-16T08:17:40.501Z,102059.31
2023-04-16T08:20:09.855Z,102067.66
2023-04-16T08:22:41.719Z,102066.78
2023-04-16T08:25:11.044Z,102072.84
2023-04-16T08:27:42.028Z,102075.97
2023-04-16T08:30:10.116Z,102077.84
2023-04-16T08:32:43.129Z,102081.28
2023-04-16T08:35:11.453Z,102080.09
2023-04-16T08:37:40.356Z,102082.44
2023-04-16T08:40:09.642Z,102088.03
2023-04-16T08:42:42.118Z,102088.59
2023-04-16T08:45:15.978Z,102097.88
2023-04-16T08:47:47.635Z,102086.06
2023-04-16T08:50:16.914Z,102093.94
2023-04-16T08:52:51.597Z,102099.16
2023-04-16T08:55:22.945Z,102098.38
2023-04-16T08:57:58.904Z,102091.69
2023-04-16T09:00:28.059Z,102082.69
2023-04-16T09:02:57.561Z,102095.59
2023-04-16T09:05:26.398Z,102094.66
2023-04-16T09:07:54.813Z,102094.91
2023-04-16T09:10:23.417Z,102096.88
2023-04-16T09:12:51.319Z,102090.28
2023-04-16T09:15:22.201Z,102093.63
2023-04-16T09:17:50.131Z,102096.19
2023-04-16T09:20:19.549Z,102100.38
2023-04-16T09:22:48.630Z,102101.34
2023-04-16T09:25:16.652Z,102097.19
2023-04-16T09:27:45.311Z,102105.78
2023-04-16T09:30:24.173Z,102104.66
2023-04-16T09:32:53.094Z,102098.75
2023-04-16T09:35:22.595Z,102110.19
2023-04-16T09:37:57.938Z,102112.25
2023-04-16T09:40:27.246Z,102119.78
2023-04-16T09:43:00.606Z,102117.81
2023-04-16T09:45:32.854Z,102107.91
2023-04-16T09:48:06.169Z,102127.16
2023-04-16T09:50:35.601Z,102130.09
2023-04-16T09:53:04.693Z,102136.16
2023-04-16T09:55:33.741Z,102128.84
2023-04-16T09:58:02.624Z,102132.88
2023-04-16T10:00:31.897Z,102132.69
2023-04-16T10:03:07.550Z,102140.88
2023-04-16T10:05:40.390Z,102134.44
2023-04-16T10:08:14.968Z,102139.47
2023-04-16T10:10:43.415Z,102142.16
2023-04-16T10:13:12.787Z,102134.91
2023-04-16T10:15:41.971Z,102149.41
2023-04-16T10:18:10.834Z,102137.69
2023-04-16T10:20:40.864Z,102134.81
2023-04-16T10:23:09.092Z,102146.91
2023-04-16T10:25:40.131Z,102141.28
2023-04-16T10:28:08.483Z,102145.34
2023-04-16T10:30:38.656Z,102155.41
2023-04-16T10:33:07.459Z,102153.31
2023-04-16T10:35:42.171Z,102156.44
2023-04-16T10:38:32.684Z,102148.75
2023-04-16T10:41:02.197Z,102163.03
2023-04-16T10:43:31.118Z,102161.53
2023-04-16T10:45:59.001Z,102158.78
2023-04-16T10:48:30.937Z,102168.81
2023-04-16T10:51:09.098Z,102163.09
2023-04-16T10:53:38.508Z,102176.56
2023-04-16T10:56:13.727Z,102165.19
2023-04-16T10:58:42.305Z,102166.81
2023-04-16T11:01:16.481Z,102175.22
2023-04-16T11:03:49.076Z,102175.13
2023-04-16T11:06:24.823Z,102171.56
2023-04-16T11:08:54.976Z,102174.44
2023-04-16T11:11:24.431Z,102170.19
2023-04-16T11:13:57.582Z,102167.66
2023-04-16T11:16:27.182Z,102166.66
2023-04-16T11:18:57.186Z,102172.69
2023-04-16T11:21:28.327Z,102177.44
2023-04-16T11:23:57.030Z,102182.84
2023-04-16T11:26:26.849Z,102194.13
2023-04-16T11:28:56.350Z,102186.59
2023-04-16T11:31:24.653Z,102182.94
2023-04-16T11:33:52.719Z,102183.91
2023-04-16T11:36:26.224Z,102180.50
2023-04-16T11:39:03.648Z,102182.19
2023-04-16T11:41:31.886Z,102182.41
2023-04-16T11:44:01.776Z,102178.03
2023-04-16T11:46:44.705Z,102187.06
2023-04-16T11:49:13.015Z,102185.47
2023-04-16T11:51:42.558Z,102194.13
2023-04-16T11:54:20.536Z,102199.09
2023-04-16T11:56:49.795Z,102193.31
2023-04-16T11:59:23.188Z,102203.19
2023-04-16T12:01:52.971Z,102201.47
2023-04-16T12:04:23.296Z,102197.53
2023-04-16T12:07:06.930Z,102204.00
2023-04-16T12:09:40.193Z,102196.72
2023-04-16T12:12:27.602Z,102194.69
2023-04-16T12:14:57.069Z,102204.72
2023-04-16T12:17:25.506Z,102216.44
2023-04-16T12:19:56.777Z,102212.50
2023-04-16T12:22:29.811Z,102212.41
2023-04-16T12:25:01.239Z,102212.50
2023-04-16T12:27:43.503Z,102215.75
2023-04-16T12:30:15.442Z,102221.19
2023-04-16T12:32:44.470Z,102213.38
2023-04-16T12:35:12.896Z,102219.22
2023-04-16T12:37:42.128Z,102218.94
2023-04-16T12:40:12.351Z,102215.56
2023-04-16T12:42:40.274Z,102217.66
2023-04-16T12:45:11.370Z,102211.84
2023-04-16T12:47:39.405Z,102205.94
2023-04-16T12:50:08.147Z,102203.69
2023-04-16T12:52:36.851Z,102214.78
2023-04-16T12:55:05.079Z,102212.28
2023-04-16T12:57:34.367Z,102208.41
2023-04-16T13:00:02.459Z,102211.13
2023-04-16T13:02:30.799Z,102211.22
2023-04-16T13:04:59.082Z,102214.81
2023-04-16T13:07:28.235Z,102213.69
2023-04-16T13:09:56.262Z,102216.09
2023-04-16T13:12:24.193Z,102218.69
2023-04-16T13:14:53.439Z,102229.19
2023-04-16T13:17:21.390Z,102229.84
2023-04-16T13:19:49.309Z,102230.31
2023-04-16T13:22:17.343Z,102230.16
2023-04-16T13:24:46.169Z,102232.31
2023-04-16T13:27:16.095Z,102229.44
2023-04-16T13:29:44.632Z,102238.59
2023-04-16T13:32:14.891Z,102241.03
2023-04-16T13:34:42.873Z,102242.28
2023-04-16T13:37:14.421Z,102239.25
2023-04-16T13:39:42.455Z,102242.94
2023-04-16T13:42:13.355Z,102231.44
2023-04-16T13:44:42.768Z,102239.06
2023-04-16T13:47:11.296Z,102230.31
2023-04-16T13:49:41.415Z,102234.56
2023-04-16T13:52:09.403Z,102232.69
2023-04-16T13:54:38.145Z,102229.94
2023-04-16T13:57:06.077Z,102228.91
2023-04-16T13:59:34.435Z,102229.44
2023-04-16T14:02:03.289Z,102227.25
2023-04-16T14:04:31.553Z,102231.56
2023-04-16T14:07:01.207Z,102227.16
2023-04-16T14:09:29.363Z,102229.63
2023-04-16T14:11:57.482Z,102231.81
2023-04-16T14:14:26.014Z,102227.94
2023-04-16T14:16:55.612Z,102231.91
2023-04-16T14:19:23.755Z,102233.59
2023-04-16T14:21:51.721Z,102229.31
2023-04-16T14:24:22.787Z,102232.69
2023-04-16T14:26:52.754Z,102219.38
2023-04-16T14:29:21.183Z,102226.84
2023-04-16T14:31:51.635Z,102229.38
2023-04-16T14:34:19.592Z,102230.63
2023-04-16T14:36:49.160Z,102233.47
2023-04-16T14:39:20.168Z,102231.75
2023-04-16T14:41:49.645Z,102233.72
2023-04-16T14:44:17.704Z,102230.03
2023-04-16T14:46:47.532Z,102227.72
2023-04-16T14:49:16.036Z,102237.28
2023-04-16T14:51:46.656Z,102240.03
2023-04-16T14:54:15.044Z,102245.66
2023-04-16T14:56:43.425Z,102239.75
2023-04-16T14:59:15.539Z,102242.03
2023-04-16T15:01:44.333Z,102242.03
2023-04-16T15:04:12.462Z,102249.31
2023-04-16T15:06:42.000Z,102246.50
2023-04-16T15:09:10.412Z,102247.47
2023-04-16T15:11:38.459Z,102248.78
2023-04-16T15:14:06.895Z,102253.31
2023-04-16T15:16:37.123Z,102240.81
2023-04-16T15:19:05.513Z,102237.88
2023-04-16T15:21:33.495Z,102237.44
2023-04-16T15:24:01.742Z,102248.47
2023-04-16T15:26:30.314Z,102247.88
2023-04-16T15:28:58.702Z,102247.13
2023-04-16T15:31:26.985Z,102244.13
2023-04-16T15:33:56.925Z,102250.84
2023-04-16T15:36:24.949Z,102246.72
2023-04-16T15:38:54.934Z,102251.31
2023-04-16T15:41:23.224Z,102249.66
2023-04-16T15:43:51.312Z,102250.59
2023-04-16T15:46:19.416Z,102256.66
2023-04-16T15:48:47.294Z,102250.63
2023-04-16T15:51:19.818Z,102254.16
2023-04-16T15:53:49.551Z,102260.00
2023-04-16T15:56:17.685Z,102255.91
2023-04-16T15:58:45.676Z,102259.69
2023-04-16T16:01:13.627Z,102248.31
2023-04-16T16:03:45.232Z,102260.13
2023-04-16T16:06:13.424Z,102260.78
2023-04-16T16:08:43.655Z,102261.19
2023-04-16T16:11:14.742Z,102267.97
2023-04-16T16:13:43.588Z,102273.03
2023-04-16T16:16:11.867Z,102266.47
2023-04-16T16:18:41.061Z,102274.13
2023-04-16T16:21:09.046Z,102271.13
2023-04-16T16:23:37.276Z,102268.75
2023-04-16T16:26:07.250Z,102268.59
2023-04-16T16:28:37.641Z,102272.31
2023-04-16T16:31:08.190Z,102258.66
2023-04-16T16:33:37.368Z,102274.38
2023-04-16T16:36:13.774Z,102267.75
2023-04-16T16:38:42.693Z,102271.66
2023-04-16T16:41:13.809Z,102271.97
2023-04-16T16:43:41.709Z,102278.91
2023-04-16T16:46:10.384Z,102276.22
2023-04-16T16:48:38.838Z,102275.59
2023-04-16T16:51:11.864Z,102275.78
2023-04-16T16:53:39.738Z,102277.03
2023-04-16T16:56:07.848Z,102272.22
2023-04-16T16:58:37.275Z,102273.69
2023-04-16T17:01:05.222Z,102286.72
2023-04-16T17:03:33.263Z,102280.84
2023-04-16T17:06:01.538Z,102284.50
2023-04-16T17:08:30.072Z,102281.03
2023-04-16T17:10:58.119Z,102281.94
2023-04-16T17:13:26.235Z,102288.84
2023-04-16T17:15:55.838Z,102295.00
2023-04-16T17:18:23.739Z,102302.53
2023-04-16T17:20:51.796Z,102302.19
2023-04-16T17:23:19.678Z,102301.97
2023-04-16T17:25:47.691Z,102304.22
2023-04-16T17:28:15.859Z,102312.06
2023-04-16T17:30:43.843Z,102311.44
2023-04-16T17:33:17.242Z,102309.59
2023-04-16T17:35:45.357Z,102316.03
2023-04-16T17:38:15.958Z,102310.75
2023-04-16T17:40:43.974Z,102318.00
2023-04-16T17:43:14.881Z,102321.75
2023-04-16T17:45:42.968Z,102319.47
2023-04-16T17:48:12.477Z,102317.94
2023-04-16T17:50:43.410Z,102321.81
2023-04-16T17:53:12.340Z,102319.09
2023-04-16T17:55:40.621Z,102330.91
2023-04-16T17:58:08.555Z,102336.25
2023-04-16T18:00:36.518Z,102327.41
2023-04-16T18:03:05.271Z,102335.22
2023-04-16T18:05:34.733Z,102338.84
2023-04-16T18:08:02.759Z,102337.81
2023-04-16T18:10:32.723Z,102347.03
2023-04-16T18:13:00.702Z,102348.22
2023-04-16T18:15:28.757Z,102347.22
2023-04-16T18:17:56.902Z,102349.81
2023-04-16T18:20:24.778Z,102356.19
2023-04-16T18:22:54.161Z,102349.34
2023-04-16T18:25:32.204Z,102354.72
2023-04-16T18:28:03.923Z,102363.50
2023-04-16T18:30:31.970Z,102363.22
2023-04-16T18:33:33.605Z,102369.25
2023-04-16T18:35:47.953Z,102365.97
2023-04-16T18:38:17.300Z,102370.19
2023-04-16T18:40:45.267Z,102375.34
2023-04-16T18:43:13.927Z,102374.94
2023-04-16T18:45:42.405Z,102381.91
2023-04-16T18:48:11.064Z,102386.91
2023-04-16T18:50:39.004Z,102385.03
2023-04-16T18:53:06.964Z,102386.97
2023-04-16T18:55:36.291Z,102394.09
2023-04-16T18:58:04.221Z,102392.13
2023-04-16T19:00:32.204Z,102390.22
2023-04-16T19:03:00.157Z,102397.03
2023-04-16T19:05:28.242Z,102403.44
2023-04-16T19:07:56.229Z,102404.19
2023-04-16T19:10:24.187Z,102406.78
2023-04-16T19:12:53.517Z,102410.41
2023-04-16T19:15:21.502Z,102417.56
2023-04-16T19:17:49.480Z,102412.88
2023-04-16T19:20:17.697Z,102405.56
2023-04-16T19:22:46.041Z,102413.53
2023-04-16T19:25:13.989Z,102411.19
2023-04-16T19:27:41.951Z,102426.50
2023-04-16T19:30:12.550Z,102422.94
2023-04-16T19:32:40.938Z,102421.41
2023-04-16T19:35:12.696Z,102433.25
2023-04-16T19:37:40.576Z,102431.06
2023-04-16T19:40:09.985Z,102430.00
2023-04-16T19:42:38.050Z,102433.50
2023-04-16T19:45:07.105Z,102433.50
2023-04-16T19:47:36.774Z,102437.03
2023-04-16T19:50:04.782Z,102434.28
2023-04-16T19:52:37.428Z,102434.47
2023-04-16T19:55:08.236Z,102436.31
2023-04-16T19:57:36.399Z,102437.97
2023-04-16T20:00:05.414Z,102432.59
2023-04-16T20:02:33.578Z,102429.03
2023-04-16T20:05:03.526Z,102435.19
2023-04-16T20:07:31.529Z,102439.56
2023-04-16T20:09:59.768Z,102440.59
2023-04-16T20:12:27.646Z,102434.28
2023-04-16T20:14:55.749Z,102438.25
2023-04-16T20:17:23.996Z,102442.16
2023-04-16T20:19:52.140Z,102440.81
2023-04-16T20:22:21.453Z,102437.75
2023-04-16T20:24:49.576Z,102444.47
2023-04-16T20:27:19.510Z,102444.84
2023-04-16T20:29:47.513Z,102451.13
2023-04-16T20:32:15.422Z,102444.69
2023-04-16T20:34:43.332Z,102448.31
2023-04-16T20:37:14.636Z,102447.34
2023-04-16T20:39:45.305Z,102451.22
2023-04-16T20:42:14.080Z,102453.53
2023-04-16T20:44:42.165Z,102450.72
2023-04-16T20:47:15.047Z,102457.47
2023-04-16T20:49:46.377Z,102454.13
2023-04-16T20:52:14.541Z,102447.50
2023-04-16T20:54:44.051Z,102449.63
2023-04-16T20:57:13.888Z,102441.66
2023-04-16T20:59:41.931Z,102451.13
2023-04-16T21:02:10.028Z,102454.78
2023-04-16T21:04:38.928Z,102459.00
2023-04-16T21:07:07.431Z,102462.44
2023-04-16T21:09:35.742Z,102459.69
2023-04-16T21:12:08.575Z,102462.56
2023-04-16T21:14:36.511Z,102459.81
2023-04-16T21:17:04.504Z,102467.09
2023-04-16T21:19:32.567Z,102467.47
2023-04-16T21:22:03.578Z,102469.63
2023-04-16T21:24:32.908Z,102463.00
2023-04-16T21:27:01.744Z,102464.66
2023-04-16T21:29:31.613Z,102465.69
2023-04-16T21:31:59.696Z,102468.75
2023-04-16T21:34:27.738Z,102467.19
2023-04-16T21:36:56.039Z,102467.69
2023-04-16T21:39:26.174Z,102466.81
2023-04-16T21:41:54.023Z,102462.47
2023-04-16T21:44:22.258Z,102457.00
2023-04-16T21:46:51.829Z,102462.41
2023-04-16T21:49:19.983Z,102461.09
2023-04-16T21:51:47.967Z,102454.50
2023-04-16T21:54:17.958Z,102453.47
2023-04-16T21:56:46.249Z,102457.63
2023-04-16T21:59:14.344Z,102445.50
2023-04-16T22:01:42.888Z,102451.84
2023-04-16T22:04:12.503Z,102460.09
2023-04-16T22:06:41.000Z,102456.56
2023-04-16T22:09:12.275Z,102461.53
2023-04-16T22:11:40.865Z,102462.41
2023-04-16T22:14:09.028Z,102457.06
2023-04-16T22:16:37.411Z,102459.69
2023-04-16T22:19:05.512Z,102459.84
2023-04-16T22:21:35.067Z,102459.91
2023-04-16T22:24:03.745Z,102470.53
2023-04-16T22:26:31.648Z,102470.72
2023-04-16T22:29:02.190Z,102471.66
2023-04-16T22:31:30.458Z,102473.47
2023-04-16T22:33:58.716Z,102469.09
2023-04-16T22:36:26.908Z,102465.28
2023-04-16T22:38:56.378Z,102475.91
2023-04-16T22:41:24.356Z,102481.78
2023-04-16T22:43:52.619Z,102478.34
2023-04-16T22:46:22.493Z,102484.53
2023-04-16T22:48:51.832Z,102473.88
2023-04-16T22:51:21.553Z,102481.13
2023-04-16T22:53:49.554Z,102471.75
2023-04-16T22:56:18.973Z,102481.13
2023-04-16T22:58:48.583Z,102476.69
2023-04-16T23:01:17.234Z,102475.78
2023-04-16T23:03:47.996Z,102475.53
2023-04-16T23:06:16.117Z,102472.84
2023-04-16T23:08:46.602Z,102480.19
2023-04-16T23:11:14.870Z,102468.59
2023-04-16T23:13:44.240Z,102473.69
2023-04-16T23:16:12.356Z,102470.31
2023-04-16T23:18:40.360Z,102475.50
2023-04-16T23:21:08.338Z,102458.75
2023-04-16T23:23:36.350Z,102466.50
2023-04-16T23:26:04.360Z,102468.81
2023-04-16T23:28:32.335Z,102473.94
2023-04-16T23:31:01.904Z,102467.53
2023-04-16T23:33:30.118Z,102471.78
2023-04-16T23:35:58.087Z,102467.97
2023-04-16T23:38:26.040Z,102459.22
2023-04-16T23:40:54.052Z,102458.09
2023-04-16T23:43:22.192Z,102462.56
2023-04-16T23:45:50.249Z,102461.31
2023-04-16T23:48:19.512Z,102460.56
2023-04-16T23:50:47.371Z,102459.88
2023-04-16T23:53:15.858Z,102459.69
2023-04-16T23:55:43.788Z,102462.66
2023-04-16T23:58:11.699Z,102466.44
